sensor_id;sensor_type;location;lat;lon;timestamp;temperature;humidity
1878;DHT22;939;51.426;6.972;2023-09-07T00:01:51;20.20;99.90
1878;DHT22;939;51.426;6.972;2023-09-07T00:04:18;20.30;99.90
1878;DHT22;939;51.426;6.972;2023-09-07T00:06:46;20.20;99.90
1878;DHT22;939;51.426;6.972;2023-09-07T00:09:15;20.20;99.90
1878;DHT22;939;51.426;6.972;2023-09-07T00:11:43;20.20;99.90
1878;DHT22;939;51.426;6.972;2023-09-07T00:14:10;20.10;99.90
1878;DHT22;939;51.426;6.972;2023-09-07T00:16:39;20.10;99.90
1878;DHT22;939;51.426;6.972;2023-09-07T00:19:06;20.10;99.90
1878;DHT22;939;51.426;6.972;2023-09-07T00:21:33;20.00;99.90
1878;DHT22;939;51.426;6.972;2023-09-07T00:24:00;20.00;99.90
1878;DHT22;939;51.426;6.972;2023-09-07T00:26:30;19.90;99.90
1878;DHT22;939;51.426;6.972;2023-09-07T00:28:57;19.90;99.90
1878;DHT22;939;51.426;6.972;2023-09-07T00:31:24;19.80;99.90
1878;DHT22;939;51.426;6.972;2023-09-07T00:33:53;19.80;99.90
1878;DHT22;939;51.426;6.972;2023-09-07T00:36:19;19.80;99.90
1878;DHT22;939;51.426;6.972;2023-09-07T00:38:46;19.80;99.90
1878;DHT22;939;51.426;6.972;2023-09-07T00:41:13;19.70;99.90
1878;DHT22;939;51.426;6.972;2023-09-07T00:43:40;19.70;99.90
1878;DHT22;939;51.426;6.972;2023-09-07T00:46:08;19.60;99.90
1878;DHT22;939;51.426;6.972;2023-09-07T00:48:34;19.70;99.90
1878;DHT22;939;51.426;6.972;2023-09-07T00:51:03;19.60;99.90
1878;DHT22;939;51.426;6.972;2023-09-07T00:53:30;19.60;99.90
1878;DHT22;939;51.426;6.972;2023-09-07T00:55:58;19.60;99.90
1878;DHT22;939;51.426;6.972;2023-09-07T00:58:25;19.60;99.90
1878;DHT22;939;51.426;6.972;2023-09-07T01:00:52;19.60;99.90
1878;DHT22;939;51.426;6.972;2023-09-07T01:03:19;19.70;99.90
1878;DHT22;939;51.426;6.972;2023-09-07T01:05:51;19.80;99.90
1878;DHT22;939;51.426;6.972;2023-09-07T01:08:24;19.90;99.90
1878;DHT22;939;51.426;6.972;2023-09-07T01:10:51;20.00;99.90
1878;DHT22;939;51.426;6.972;2023-09-07T01:13:19;20.00;99.90
1878;DHT22;939;51.426;6.972;2023-09-07T01:15:46;20.00;99.90
1878;DHT22;939;51.426;6.972;2023-09-07T01:18:16;20.10;99.90
1878;DHT22;939;51.426;6.972;2023-09-07T01:20:44;20.10;99.90
1878;DHT22;939;51.426;6.972;2023-09-07T01:23:13;20.10;99.90
1878;DHT22;939;51.426;6.972;2023-09-07T01:25:41;20.10;99.90
1878;DHT22;939;51.426;6.972;2023-09-07T01:28:09;20.10;99.90
1878;DHT22;939;51.426;6.972;2023-09-07T01:30:36;20.10;99.90
1878;DHT22;939;51.426;6.972;2023-09-07T01:33:04;20.10;99.90
1878;DHT22;939;51.426;6.972;2023-09-07T01:35:32;20.10;99.90
1878;DHT22;939;51.426;6.972;2023-09-07T01:38:00;20.10;99.90
1878;DHT22;939;51.426;6.972;2023-09-07T01:40:28;20.10;99.90
1878;DHT22;939;51.426;6.972;2023-09-07T01:42:55;20.10;99.90
1878;DHT22;939;51.426;6.972;2023-09-07T01:45:22;20.10;99.90
1878;DHT22;939;51.426;6.972;2023-09-07T01:47:49;20.10;99.90
1878;DHT22;939;51.426;6.972;2023-09-07T01:50:16;20.10;99.90
1878;DHT22;939;51.426;6.972;2023-09-07T01:52:46;20.10;99.90
1878;DHT22;939;51.426;6.972;2023-09-07T01:55:13;20.00;99.90
1878;DHT22;939;51.426;6.972;2023-09-07T01:57:41;20.00;99.90
1878;DHT22;939;51.426;6.972;2023-09-07T02:00:09;20.00;99.90
1878;DHT22;939;51.426;6.972;2023-09-07T02:02:36;20.00;99.90
1878;DHT22;939;51.426;6.972;2023-09-07T02:05:04;20.00;99.90
1878;DHT22;939;51.426;6.972;2023-09-07T02:07:31;20.00;99.90
1878;DHT22;939;51.426;6.972;2023-09-07T02:09:57;19.90;99.90
1878;DHT22;939;51.426;6.972;2023-09-07T02:12:24;19.90;99.90
1878;DHT22;939;51.426;6.972;2023-09-07T02:14:53;19.90;99.90
1878;DHT22;939;51.426;6.972;2023-09-07T02:17:20;19.90;99.90
1878;DHT22;939;51.426;6.972;2023-09-07T02:19:47;19.80;99.90
1878;DHT22;939;51.426;6.972;2023-09-07T02:22:14;19.80;99.90
1878;DHT22;939;51.426;6.972;2023-09-07T02:24:40;19.80;99.90
1878;DHT22;939;51.426;6.972;2023-09-07T02:27:07;19.70;99.90
1878;DHT22;939;51.426;6.972;2023-09-07T02:29:34;19.70;99.90
1878;DHT22;939;51.426;6.972;2023-09-07T02:32:03;19.70;99.90
1878;DHT22;939;51.426;6.972;2023-09-07T02:34:30;19.60;99.90
1878;DHT22;939;51.426;6.972;2023-09-07T02:36:57;19.60;99.90
1878;DHT22;939;51.426;6.972;2023-09-07T02:39:24;19.60;99.90
1878;DHT22;939;51.426;6.972;2023-09-07T02:41:52;19.60;99.90
1878;DHT22;939;51.426;6.972;2023-09-07T02:44:19;19.50;99.90
1878;DHT22;939;51.426;6.972;2023-09-07T02:46:46;19.50;99.90
1878;DHT22;939;51.426;6.972;2023-09-07T02:49:14;19.40;99.90
1878;DHT22;939;51.426;6.972;2023-09-07T02:51:41;19.40;99.90
1878;DHT22;939;51.426;6.972;2023-09-07T02:54:08;19.30;99.90
1878;DHT22;939;51.426;6.972;2023-09-07T02:56:35;19.30;99.90
1878;DHT22;939;51.426;6.972;2023-09-07T02:59:02;19.30;99.90
1878;DHT22;939;51.426;6.972;2023-09-07T03:01:29;19.20;99.90
1878;DHT22;939;51.426;6.972;2023-09-07T03:03:56;19.20;99.90
1878;DHT22;939;51.426;6.972;2023-09-07T03:06:24;19.10;99.90
1878;DHT22;939;51.426;6.972;2023-09-07T03:08:51;19.10;99.90
1878;DHT22;939;51.426;6.972;2023-09-07T03:11:18;19.10;99.90
1878;DHT22;939;51.426;6.972;2023-09-07T03:13:45;19.10;99.90
1878;DHT22;939;51.426;6.972;2023-09-07T03:16:12;19.00;99.90
1878;DHT22;939;51.426;6.972;2023-09-07T03:18:38;19.00;99.90
1878;DHT22;939;51.426;6.972;2023-09-07T03:21:06;19.00;99.90
1878;DHT22;939;51.426;6.972;2023-09-07T03:23:34;19.00;99.90
1878;DHT22;939;51.426;6.972;2023-09-07T03:26:01;19.00;99.90
1878;DHT22;939;51.426;6.972;2023-09-07T03:28:28;19.00;99.90
1878;DHT22;939;51.426;6.972;2023-09-07T03:30:55;19.00;99.90
1878;DHT22;939;51.426;6.972;2023-09-07T03:33:22;18.90;99.90
1878;DHT22;939;51.426;6.972;2023-09-07T03:35:49;18.90;99.90
1878;DHT22;939;51.426;6.972;2023-09-07T03:38:17;18.80;99.90
1878;DHT22;939;51.426;6.972;2023-09-07T03:40:45;18.80;99.90
1878;DHT22;939;51.426;6.972;2023-09-07T03:43:12;18.80;99.90
1878;DHT22;939;51.426;6.972;2023-09-07T03:45:39;18.90;99.90
1878;DHT22;939;51.426;6.972;2023-09-07T03:48:06;18.80;99.90
1878;DHT22;939;51.426;6.972;2023-09-07T03:50:35;18.80;99.90
1878;DHT22;939;51.426;6.972;2023-09-07T03:53:02;18.80;99.90
1878;DHT22;939;51.426;6.972;2023-09-07T03:55:29;18.80;99.90
1878;DHT22;939;51.426;6.972;2023-09-07T03:57:58;18.80;99.90
1878;DHT22;939;51.426;6.972;2023-09-07T04:00:25;18.80;99.90
1878;DHT22;939;51.426;6.972;2023-09-07T04:02:51;18.80;99.90
1878;DHT22;939;51.426;6.972;2023-09-07T04:05:18;18.70;99.90
1878;DHT22;939;51.426;6.972;2023-09-07T04:07:45;18.70;99.90
1878;DHT22;939;51.426;6.972;2023-09-07T04:10:12;18.70;99.90
1878;DHT22;939;51.426;6.972;2023-09-07T04:12:39;18.70;99.90
1878;DHT22;939;51.426;6.972;2023-09-07T04:15:09;18.70;99.90
1878;DHT22;939;51.426;6.972;2023-09-07T04:17:36;18.70;99.90
1878;DHT22;939;51.426;6.972;2023-09-07T04:20:07;18.60;99.90
1878;DHT22;939;51.426;6.972;2023-09-07T04:22:34;18.60;99.90
1878;DHT22;939;51.426;6.972;2023-09-07T04:25:02;18.60;99.90
1878;DHT22;939;51.426;6.972;2023-09-07T04:27:31;18.60;99.90
1878;DHT22;939;51.426;6.972;2023-09-07T04:29:58;18.50;99.90
1878;DHT22;939;51.426;6.972;2023-09-07T04:32:26;18.50;99.90
1878;DHT22;939;51.426;6.972;2023-09-07T04:34:55;18.50;99.90
1878;DHT22;939;51.426;6.972;2023-09-07T04:37:22;18.50;99.90
1878;DHT22;939;51.426;6.972;2023-09-07T04:39:51;18.50;99.90
1878;DHT22;939;51.426;6.972;2023-09-07T04:42:19;18.50;99.90
1878;DHT22;939;51.426;6.972;2023-09-07T04:44:46;18.50;99.90
1878;DHT22;939;51.426;6.972;2023-09-07T04:47:13;18.50;99.90
1878;DHT22;939;51.426;6.972;2023-09-07T04:49:41;18.50;99.90
1878;DHT22;939;51.426;6.972;2023-09-07T04:52:08;18.40;99.90
1878;DHT22;939;51.426;6.972;2023-09-07T04:54:35;18.40;99.90
1878;DHT22;939;51.426;6.972;2023-09-07T04:57:02;18.40;99.90
1878;DHT22;939;51.426;6.972;2023-09-07T04:59:29;18.40;99.90
1878;DHT22;939;51.426;6.972;2023-09-07T05:01:59;18.50;99.90
1878;DHT22;939;51.426;6.972;2023-09-07T05:04:26;18.50;99.90
1878;DHT22;939;51.426;6.972;2023-09-07T05:06:54;18.50;99.90
1878;DHT22;939;51.426;6.972;2023-09-07T05:09:21;18.50;99.90
1878;DHT22;939;51.426;6.972;2023-09-07T05:11:49;18.50;99.90
1878;DHT22;939;51.426;6.972;2023-09-07T05:14:16;18.50;99.90
1878;DHT22;939;51.426;6.972;2023-09-07T05:16:43;18.40;99.90
1878;DHT22;939;51.426;6.972;2023-09-07T05:19:10;18.40;99.90
1878;DHT22;939;51.426;6.972;2023-09-07T05:21:37;18.30;99.90
1878;DHT22;939;51.426;6.972;2023-09-07T05:24:05;18.40;99.90
1878;DHT22;939;51.426;6.972;2023-09-07T05:26:34;18.50;99.90
1878;DHT22;939;51.426;6.972;2023-09-07T05:29:00;18.50;99.90
1878;DHT22;939;51.426;6.972;2023-09-07T05:31:27;18.50;99.90
1878;DHT22;939;51.426;6.972;2023-09-07T05:33:54;18.60;99.90
1878;DHT22;939;51.426;6.972;2023-09-07T05:36:21;18.60;99.90
1878;DHT22;939;51.426;6.972;2023-09-07T05:38:48;18.70;99.90
1878;DHT22;939;51.426;6.972;2023-09-07T05:41:16;18.70;99.90
1878;DHT22;939;51.426;6.972;2023-09-07T05:43:43;18.80;99.90
1878;DHT22;939;51.426;6.972;2023-09-07T05:46:10;18.80;99.90
1878;DHT22;939;51.426;6.972;2023-09-07T05:48:37;18.80;99.90
1878;DHT22;939;51.426;6.972;2023-09-07T05:51:03;18.80;99.90
1878;DHT22;939;51.426;6.972;2023-09-07T05:53:30;18.90;99.90
1878;DHT22;939;51.426;6.972;2023-09-07T05:55:57;18.80;99.90
1878;DHT22;939;51.426;6.972;2023-09-07T05:58:25;18.80;99.90
1878;DHT22;939;51.426;6.972;2023-09-07T06:00:52;18.70;99.90
1878;DHT22;939;51.426;6.972;2023-09-07T06:03:19;18.70;99.90
1878;DHT22;939;51.426;6.972;2023-09-07T06:05:46;18.70;99.90
1878;DHT22;939;51.426;6.972;2023-09-07T06:08:13;18.70;99.90
1878;DHT22;939;51.426;6.972;2023-09-07T06:10:43;18.80;99.90
1878;DHT22;939;51.426;6.972;2023-09-07T06:13:09;18.80;99.90
1878;DHT22;939;51.426;6.972;2023-09-07T06:15:38;18.80;99.90
1878;DHT22;939;51.426;6.972;2023-09-07T06:18:05;18.80;99.90
1878;DHT22;939;51.426;6.972;2023-09-07T06:20:31;18.90;99.90
1878;DHT22;939;51.426;6.972;2023-09-07T06:22:59;18.90;99.90
1878;DHT22;939;51.426;6.972;2023-09-07T06:25:26;18.90;99.90
1878;DHT22;939;51.426;6.972;2023-09-07T06:27:53;18.90;99.90
1878;DHT22;939;51.426;6.972;2023-09-07T06:30:20;18.80;99.90
1878;DHT22;939;51.426;6.972;2023-09-07T06:32:48;18.80;99.90
1878;DHT22;939;51.426;6.972;2023-09-07T06:35:17;18.80;99.90
1878;DHT22;939;51.426;6.972;2023-09-07T06:37:45;18.90;99.90
1878;DHT22;939;51.426;6.972;2023-09-07T06:40:11;18.90;99.90
1878;DHT22;939;51.426;6.972;2023-09-07T06:42:41;19.00;99.90
1878;DHT22;939;51.426;6.972;2023-09-07T06:45:09;19.00;99.90
1878;DHT22;939;51.426;6.972;2023-09-07T06:47:38;19.00;99.90
1878;DHT22;939;51.426;6.972;2023-09-07T06:50:07;19.00;99.90
1878;DHT22;939;51.426;6.972;2023-09-07T06:52:34;19.00;99.90
1878;DHT22;939;51.426;6.972;2023-09-07T06:55:00;18.90;99.90
1878;DHT22;939;51.426;6.972;2023-09-07T06:57:28;19.00;99.90
1878;DHT22;939;51.426;6.972;2023-09-07T06:59:55;19.10;99.90
1878;DHT22;939;51.426;6.972;2023-09-07T07:02:22;19.20;99.90
1878;DHT22;939;51.426;6.972;2023-09-07T07:04:49;19.30;99.90
1878;DHT22;939;51.426;6.972;2023-09-07T07:07:17;19.40;99.90
1878;DHT22;939;51.426;6.972;2023-09-07T07:09:45;19.50;99.90
1878;DHT22;939;51.426;6.972;2023-09-07T07:12:12;19.60;99.90
1878;DHT22;939;51.426;6.972;2023-09-07T07:14:40;19.60;99.90
1878;DHT22;939;51.426;6.972;2023-09-07T07:17:07;19.70;99.90
1878;DHT22;939;51.426;6.972;2023-09-07T07:19:35;19.80;99.90
1878;DHT22;939;51.426;6.972;2023-09-07T07:22:10;19.90;99.90
1878;DHT22;939;51.426;6.972;2023-09-07T07:24:42;19.90;99.90
1878;DHT22;939;51.426;6.972;2023-09-07T07:27:10;20.00;99.90
1878;DHT22;939;51.426;6.972;2023-09-07T07:29:37;20.00;99.90
1878;DHT22;939;51.426;6.972;2023-09-07T07:32:05;20.10;99.90
1878;DHT22;939;51.426;6.972;2023-09-07T07:34:35;20.20;99.90
1878;DHT22;939;51.426;6.972;2023-09-07T07:37:02;20.30;99.90
1878;DHT22;939;51.426;6.972;2023-09-07T07:39:29;20.30;99.90
1878;DHT22;939;51.426;6.972;2023-09-07T07:41:58;20.40;99.90
1878;DHT22;939;51.426;6.972;2023-09-07T07:44:25;20.50;99.90
1878;DHT22;939;51.426;6.972;2023-09-07T07:46:55;20.50;99.90
1878;DHT22;939;51.426;6.972;2023-09-07T07:49:28;20.60;99.90
1878;DHT22;939;51.426;6.972;2023-09-07T07:51:58;20.70;99.90
1878;DHT22;939;51.426;6.972;2023-09-07T07:54:37;20.70;99.90
1878;DHT22;939;51.426;6.972;2023-09-07T07:57:24;20.80;99.90
1878;DHT22;939;51.426;6.972;2023-09-07T07:59:53;20.90;99.90
1878;DHT22;939;51.426;6.972;2023-09-07T08:02:35;21.00;99.90
1878;DHT22;939;51.426;6.972;2023-09-07T08:05:20;21.10;99.90
1878;DHT22;939;51.426;6.972;2023-09-07T08:08:26;21.20;99.90
1878;DHT22;939;51.426;6.972;2023-09-07T08:11:27;21.30;99.90
1878;DHT22;939;51.426;6.972;2023-09-07T08:17:51;21.60;99.90
1878;DHT22;939;51.426;6.972;2023-09-07T08:24:20;22.00;99.90
1878;DHT22;939;51.426;6.972;2023-09-07T08:26:47;22.10;99.90
1878;DHT22;939;51.426;6.972;2023-09-07T08:29:23;22.20;99.90
1878;DHT22;939;51.426;6.972;2023-09-07T08:31:59;22.30;99.90
1878;DHT22;939;51.426;6.972;2023-09-07T08:34:55;22.40;99.90
1878;DHT22;939;51.426;6.972;2023-09-07T08:40:35;22.50;99.90
1878;DHT22;939;51.426;6.972;2023-09-07T08:43:08;22.70;99.90
1878;DHT22;939;51.426;6.972;2023-09-07T08:45:42;22.80;99.90
1878;DHT22;939;51.426;6.972;2023-09-07T08:48:17;22.90;99.90
1878;DHT22;939;51.426;6.972;2023-09-07T08:50:52;23.10;99.90
1878;DHT22;939;51.426;6.972;2023-09-07T08:53:23;23.10;99.90
1878;DHT22;939;51.426;6.972;2023-09-07T08:55:53;23.40;99.90
1878;DHT22;939;51.426;6.972;2023-09-07T08:58:29;24.40;99.90
1878;DHT22;939;51.426;6.972;2023-09-07T09:00:59;25.10;99.90
1878;DHT22;939;51.426;6.972;2023-09-07T09:04:06;25.80;99.90
1878;DHT22;939;51.426;6.972;2023-09-07T09:06:39;26.40;99.90
1878;DHT22;939;51.426;6.972;2023-09-07T09:09:24;26.80;99.90
1878;DHT22;939;51.426;6.972;2023-09-07T09:11:57;26.70;99.70
1878;DHT22;939;51.426;6.972;2023-09-07T09:14:48;26.50;99.10
1878;DHT22;939;51.426;6.972;2023-09-07T09:17:37;26.10;98.20
1878;DHT22;939;51.426;6.972;2023-09-07T09:20:05;25.90;99.40
1878;DHT22;939;51.426;6.972;2023-09-07T09:22:54;25.80;99.50
1878;DHT22;939;51.426;6.972;2023-09-07T09:25:23;25.60;99.60
1878;DHT22;939;51.426;6.972;2023-09-07T09:27:52;25.40;99.20
1878;DHT22;939;51.426;6.972;2023-09-07T09:31:01;25.60;99.50
1878;DHT22;939;51.426;6.972;2023-09-07T09:33:49;25.50;99.60
1878;DHT22;939;51.426;6.972;2023-09-07T09:36:21;25.90;98.20
1878;DHT22;939;51.426;6.972;2023-09-07T09:38:59;26.50;99.00
1878;DHT22;939;51.426;6.972;2023-09-07T09:41:30;26.70;98.80
1878;DHT22;939;51.426;6.972;2023-09-07T09:44:05;26.70;98.30
1878;DHT22;939;51.426;6.972;2023-09-07T09:46:43;26.50;97.30
1878;DHT22;939;51.426;6.972;2023-09-07T09:49:22;26.40;97.60
1878;DHT22;939;51.426;6.972;2023-09-07T09:52:04;26.30;98.60
1878;DHT22;939;51.426;6.972;2023-09-07T09:54:47;26.30;98.40
1878;DHT22;939;51.426;6.972;2023-09-07T09:57:23;26.30;99.00
1878;DHT22;939;51.426;6.972;2023-09-07T10:00:32;26.20;98.30
1878;DHT22;939;51.426;6.972;2023-09-07T10:03:12;26.30;99.50
1878;DHT22;939;51.426;6.972;2023-09-07T10:05:47;26.30;98.90
1878;DHT22;939;51.426;6.972;2023-09-07T10:08:17;26.20;98.30
1878;DHT22;939;51.426;6.972;2023-09-07T10:10:49;26.30;98.50
1878;DHT22;939;51.426;6.972;2023-09-07T10:13:30;26.30;98.00
1878;DHT22;939;51.426;6.972;2023-09-07T10:16:05;26.50;98.20
1878;DHT22;939;51.426;6.972;2023-09-07T10:18:49;26.80;97.50
1878;DHT22;939;51.426;6.972;2023-09-07T10:21:25;28.40;96.60
1878;DHT22;939;51.426;6.972;2023-09-07T10:23:54;30.80;92.30
1878;DHT22;939;51.426;6.972;2023-09-07T10:26:23;32.50;85.10
1878;DHT22;939;51.426;6.972;2023-09-07T10:29:02;33.30;74.70
1878;DHT22;939;51.426;6.972;2023-09-07T10:31:31;34.40;72.30
1878;DHT22;939;51.426;6.972;2023-09-07T10:34:17;36.30;58.20
1878;DHT22;939;51.426;6.972;2023-09-07T10:40:20;40.90;30.40
1878;DHT22;939;51.426;6.972;2023-09-07T10:42:49;41.00;22.10
1878;DHT22;939;51.426;6.972;2023-09-07T10:45:19;42.60;19.70
1878;DHT22;939;51.426;6.972;2023-09-07T10:48:07;43.60;15.60
